Terminal Aerodrome Forecast
Issued by NWS Los Angeles, CA

Home | Current Version | Previous Version | Text Only | Print | Product List | Glossary On
Versions: 1 2 3 4 5 6 7 8 9 10 11 12 13 14 15 16 17 18 19 20 21 22 23 24 25 26 27 28 29
309
FTUS46 KLOX 210803 AAB
TAFSMX
TAF AMD
KSMX 210803Z 2108/2206 18010KT 4SM -RA SCT015 OVC035
     FM210900 17010KT 3SM -RA BR BKN015 OVC025
     FM211400 15010KT 6SM -SHRA BKN025 OVC040
     FM211800 24008KT P6SM BKN025
     FM212200 28012KT P6SM BKN030
     FM220300 32008KT P6SM OVC025=

USA.gov is the U.S. government's official web portal to all federal, state and local government web resources and services.